»·PEaware :: N298MC KVNY-KPOC

N298MC :: KVNY-KPOC

FLIGHT INFORMATION

Flight Status: Arrived
Operator: Privately registered:
United States
More flights under this callsign
Pilot: Lawrence K. (5124)
Aircraft: CESSNA 172 SKYHAWK
(C172)
More flights by this aircraft type
Origin: KVNY Van Nuys
United States
Destination: KPOC Brackett
United States
More flights between these airports :: More routes between these airports
Route: +ADAMM2 ADAMM V186 PDZ
File this flight plan on PilotEdge
Remarks: Request ILS 26
Altitude:
(Current/Filed)
5,000ft
Speed:
(Current/Filed)
110kts
Departed: 11-Feb-19 09:08 AM
Arrived: 11-Feb-19 09:59 AM
Distance/Time
Traveled:
36nm/0:51
Distance/Time
To Go:
Arrived

Flight Plot

Page will automatically refresh every two minutes.

Flight plan parsing failed; only flown route is shown


Map Options




Map Legend


Flown Route
Filed Route
Departure Airport
Arrival Airport
Navaid (VOR, NDB)
Fix

Horizontal Profiles

Position Reports

Time Latitude Longitude Heading Altitude Ground
Speed
11-Feb-19 08:47 34.215622 -118.488416 259 805ft 0kts
11-Feb-19 08:48 34.215622 -118.488417 259 805ft 0kts
11-Feb-19 08:49 34.215622 -118.488417 259 805ft 0kts
11-Feb-19 08:50 34.215621 -118.488417 259 805ft 0kts
11-Feb-19 08:51 34.215621 -118.488418 259 805ft 0kts
11-Feb-19 08:53 34.215621 -118.488418 259 805ft 0kts
11-Feb-19 08:54 34.215621 -118.488419 259 805ft 0kts
11-Feb-19 08:55 34.215621 -118.488419 259 805ft 0kts
11-Feb-19 08:56 34.215621 -118.488419 259 805ft 0kts
11-Feb-19 08:57 34.215621 -118.488420 259 805ft 0kts
11-Feb-19 08:58 34.215621 -118.488420 259 805ft 0kts
11-Feb-19 08:59 34.215621 -118.488420 259 805ft 0kts
11-Feb-19 09:00 34.215621 -118.488421 259 805ft 0kts
11-Feb-19 09:01 34.215621 -118.488421 259 805ft 0kts
11-Feb-19 09:02 34.215621 -118.488422 259 805ft 0kts
11-Feb-19 09:03 34.212341 -118.488678 174 805ft 32kts
11-Feb-19 09:04 34.207177 -118.488146 174 805ft 0kts
11-Feb-19 09:05 34.207177 -118.488146 174 805ft 0kts
11-Feb-19 09:06 34.207176 -118.488146 174 805ft 0kts
11-Feb-19 09:07 34.206756 -118.488206 224 805ft 18kts
11-Feb-19 09:08 34.211218 -118.489244 353 821ft 63kts
11-Feb-19 09:08 34.228804 -118.492549 319 1414ft 80kts
11-Feb-19 09:10 34.230281 -118.525009 267 2315ft 80kts
11-Feb-19 09:11 34.228647 -118.552422 266 3078ft 82kts
11-Feb-19 09:12 34.227148 -118.580051 266 3763ft 86kts
11-Feb-19 09:13 34.228714 -118.610383 260 4174ft 91kts
11-Feb-19 09:13 34.211017 -118.612598 132 4627ft 93kts
11-Feb-19 09:15 34.188063 -118.581720 130 4790ft 116kts
11-Feb-19 09:16 34.166598 -118.554251 132 5006ft 113kts
11-Feb-19 09:16 34.148513 -118.531350 132 4998ft 111kts
11-Feb-19 09:17 34.127592 -118.504181 129 4864ft 109kts
11-Feb-19 09:18 34.108613 -118.478660 132 4973ft 91kts
11-Feb-19 09:19 34.091552 -118.455234 110 4855ft 95kts
11-Feb-19 09:20 34.099370 -118.426638 61 4656ft 92kts
11-Feb-19 09:21 34.111954 -118.393910 63 4692ft 112kts
11-Feb-19 09:22 34.125446 -118.359515 59 4765ft 113kts
11-Feb-19 09:23 34.127484 -118.326984 118 4972ft 94kts
11-Feb-19 09:24 34.123829 -118.295042 87 4951ft 98kts
11-Feb-19 09:25 34.115582 -118.264867 100 4897ft 96kts
11-Feb-19 09:26 34.114842 -118.231858 96 4720ft 99kts
11-Feb-19 09:27 34.111512 -118.198081 91 4735ft 104kts
11-Feb-19 09:28 34.107075 -118.163450 100 4790ft 103kts
11-Feb-19 09:29 34.104215 -118.129131 92 4821ft 106kts
11-Feb-19 09:30 34.099643 -118.095014 92 4944ft 112kts
11-Feb-19 09:31 34.091525 -118.058089 105 5080ft 117kts
11-Feb-19 09:32 34.080699 -118.019625 106 4998ft 124kts
11-Feb-19 09:33 34.070801 -117.980896 108 4998ft 118kts
11-Feb-19 09:34 34.059905 -117.943540 112 5000ft 118kts
11-Feb-19 09:35 34.047469 -117.906880 113 4999ft 118kts
11-Feb-19 09:36 34.034172 -117.870502 112 4999ft 118kts
11-Feb-19 09:37 34.021954 -117.834202 107 4999ft 117kts
11-Feb-19 09:38 34.011531 -117.796580 104 4999ft 117kts
11-Feb-19 09:39 34.005451 -117.758770 82 5003ft 114kts
11-Feb-19 09:40 34.007640 -117.720230 82 4999ft 115kts
11-Feb-19 09:41 34.009820 -117.681816 82 5000ft 115kts
11-Feb-19 09:42 34.011982 -117.643364 82 5000ft 115kts
11-Feb-19 09:43 34.014123 -117.604746 82 5000ft 115kts
11-Feb-19 09:44 34.016260 -117.566183 82 5000ft 115kts
11-Feb-19 09:45 34.018834 -117.525889 82 4453ft 122kts
11-Feb-19 09:46 34.022563 -117.486442 82 3991ft 111kts
11-Feb-19 09:47 34.039367 -117.474054 322 4014ft 105kts
11-Feb-19 09:48 34.063067 -117.495670 322 3999ft 106kts
11-Feb-19 09:49 34.079986 -117.523714 292 4001ft 106kts
11-Feb-19 09:50 34.080336 -117.559249 266 3925ft 106kts
11-Feb-19 09:51 34.082386 -117.594811 276 3812ft 106kts
11-Feb-19 09:52 34.084285 -117.630376 272 3696ft 106kts
11-Feb-19 09:53 34.085802 -117.665129 272 3489ft 102kts
11-Feb-19 09:54 34.087586 -117.699703 276 2768ft 104kts
11-Feb-19 09:55 34.089328 -117.731491 266 2147ft 80kts
11-Feb-19 09:56 34.090059 -117.757698 272 2104ft 71kts
11-Feb-19 09:57 34.091206 -117.780129 274 1014ft 48kts
11-Feb-19 09:58 34.090633 -117.784663 275 1014ft 0kts
11-Feb-19 09:59 34.090845 -117.788752 275 1014ft 23kts
11-Feb-19 10:00 34.090793 -117.787588 94 1014ft 18kts
11-Feb-19 10:01 34.090446 -117.784230 167 1014ft 0kts
11-Feb-19 10:02 34.090446 -117.784230 167 1014ft 0kts
11-Feb-19 10:03 34.090446 -117.784230 167 1014ft 0kts

Navigation Log

Ident Type
Flight plan parsing failed, navigation log unavailable